Latest Coastal Weather Observations for Aireys Inlet

IDV60701

Issued at 5:11 am EDT Saturday 13 February 2016 (issued every 10 minutes, with the page automatically refreshed every 10 minutes)

About coastal observations | Map of coastal stations | Coastal observations for VIC | Marine services | Other Formats
Station Details ID: 090180 Name: AIREYS INLET Lat: -38.46 Lon: 144.09 Height: 95.0 m
Data from the previous 72 hours. | See also: Recent months at Aireys Inlet
Date/Time
EDT
Temp

°C
Wind Pressure Rain
since 9am
mm
Weather Cloud Vis
km
Sea
Height
m
Swell
Dir
 
Speed
knots
Gust
knots
hPa Trend Height
m
Period
s
Dir
13/05:00am 19.2 NW 9 11 - - 0.0 - - - - - - -
13/04:30am 17.7 NW 7 10 - - 0.0 - - - - - - -
13/04:00am 16.5 NNE 3 4 - - 0.0 - - - - - - -
13/03:30am 16.5 NE 6 7 - - 0.0 - - - - - - -
13/03:00am 16.5 NE 3 3 - - 0.0 - - - - - - -
13/02:30am 15.2 N 3 4 - - 0.0 - - - - - - -
13/02:00am 15.0 NNW 5 7 - - 0.0 - - - - - - -
13/01:30am 15.0 NW 4 5 - - 0.0 - - - - - - -
13/01:00am 14.9 NNW 4 6 - - 0.0 - - - - - - -
13/12:30am 15.1 NW 4 5 - - 0.0 - - - - - - -
13/12:00am 15.1 NNW 5 7 - - 0.0 - - - - - - -
 
Date/Time
EDT
Temp

°C
Wind Pressure Rain
since 9am
mm
Weather Cloud Vis
km
Sea
Height
m
Swell
Dir
 
Speed
knots
Gust
knots
hPa Trend Height
m
Period
s
Dir
12/11:30pm 15.3 NNW 4 5 - - 0.0 - - - - - - -
12/11:00pm 15.7 N 3 4 - - 0.0 - - - - - - -
12/10:30pm 16.9 SSE 1 2 - - 0.0 - - - - - - -
12/10:00pm 17.3 SE 2 3 - - 0.0 - - - - - - -
12/09:30pm 17.2 SSE 3 4 - - 0.0 - - - - - - -
12/09:00pm 17.6 SE 3 4 - - 0.0 - - - - - - -
12/08:30pm 18.0 SE 2 4 - - 0.0 - - - - - - -
12/08:00pm 19.3 SSE 2 5 - - 0.0 - - - - - - -
12/07:30pm 19.4 S 4 6 - - 0.0 - - - - - - -
12/07:00pm 19.0 S 4 6 - - 0.0 - - - - - - -
12/06:30pm 20.4 SSE 4 7 - - 0.0 - - - - - - -
12/06:00pm 20.2 SSE 4 7 - - 0.0 - - - - - - -
12/05:30pm 20.1 SSE 5 8 - - 0.0 - - - - - - -
12/05:00pm 20.8 SSE 4 8 - - 0.0 - - - - - - -
12/04:30pm 21.0 SE 4 7 - - 0.0 - - - - - - -
12/04:00pm 21.0 ESE 6 9 - - 0.0 - - - - - - -
12/03:30pm 20.9 ESE 6 10 - - 0.0 - - - - - - -
12/03:00pm 21.2 ESE 6 10 - - 0.0 - - - - - - -
12/02:30pm 20.4 ESE 7 11 - - 0.0 - - - - - - -
12/02:00pm 20.4 ESE 6 11 - - 0.0 - - - - - - -
12/01:30pm 20.8 SSE 6 10 - - 0.0 - - - - - - -
12/01:00pm 20.8 SSE 6 10 - - 0.0 - - - - - - -
12/12:30pm 20.5 SSE 7 10 - - 0.0 - - - - - - -
12/12:00pm 21.5 SE 6 11 - - 0.0 - - - - - - -
12/11:30am 21.5 SSE 6 11 - - 0.0 - - - - - - -
12/11:00am 21.6 SSE 6 9 - - 0.0 - - - - - - -
12/10:30am 20.0 SE 6 9 - - 0.0 - - - - - - -
12/10:00am 19.7 SSE 5 7 - - 0.0 - - - - - - -
12/09:30am 19.4 SSE 3 6 - - 0.0 - - - - - - -
12/09:00am 19.3 SE 3 5 - - 0.0 - - - - - - -
12/08:30am 18.1 ESE 4 6 - - 0.0 - - - - - - -
12/08:00am 18.1 ESE 4 6 - - 0.0 - - - - - - -
12/07:30am 17.2 E 2 5 - - 0.0 - - - - - - -
12/07:00am 16.2 ESE 3 5 - - 0.0 - - - - - - -
12/06:30am 16.4 ESE 3 5 - - 0.0 - - - - - - -
12/06:00am 16.8 ESE 5 8 - - 0.0 - - - - - - -
12/05:30am 17.3 SE 4 7 - - 0.0 - - - - - - -
12/05:00am 17.4 SE 5 8 - - 0.0 - - - - - - -
12/04:30am 17.4 SSE 5 9 - - 0.0 - - - - - - -
12/04:00am 17.6 SE 4 7 - - 0.0 - - - - - - -
12/03:30am 17.5 SE 4 6 - - 0.0 - - - - - - -
12/03:00am 17.6 SE 3 6 - - 0.0 - - - - - - -
12/02:30am 17.6 SE 5 9 - - 0.0 - - - - - - -
12/02:00am 17.5 SE 5 8 - - 0.0 - - - - - - -
12/01:30am 17.3 S 2 5 - - 0.0 - - - - - - -
12/01:00am 17.2 SSW 3 5 - - 0.0 - - - - - - -
12/12:30am 16.8 SW 4 5 - - 0.0 - - - - - - -
12/12:00am 16.5 WSW 5 6 - - 0.0 - - - - - - -
 
Date/Time
EDT
Temp

°C
Wind Pressure Rain
since 9am
mm
Weather Cloud Vis
km
Sea
Height
m
Swell
Dir
 
Speed
knots
Gust
knots
hPa Trend Height
m
Period
s
Dir
11/11:30pm 16.4 WSW 6 8 - - 0.0 - - - - - - -
11/11:00pm 16.8 SW 6 8 - - 0.0 - - - - - - -
11/10:30pm 17.3 SSW 7 11 - - 0.0 - - - - - - -
11/10:00pm 17.5 SSW 8 13 - - 0.0 - - - - - - -
11/09:30pm 17.6 SSW 9 14 - - 0.0 - - - - - - -
11/09:00pm 17.7 SSW 10 15 - - 0.0 - - - - - - -
11/08:30pm 17.9 SSW 9 15 - - 0.0 - - - - - - -
11/08:00pm 18.3 S 9 13 - - 0.0 - - - - - - -
11/07:30pm 18.9 S 8 11 - - 0.0 - - - - - - -
11/07:00pm 20.2 S 10 14 - - 0.0 - - - - - - -
11/06:30pm 20.2 SSW 10 15 - - 0.0 - - - - - - -
11/06:00pm 20.5 S 9 13 - - 0.0 - - - - - - -
11/05:30pm 21.9 S 8 13 - - 0.0 - - - - - - -
11/05:00pm 22.2 S 8 13 - - 0.0 - - - - - - -
11/04:30pm 22.4 S 9 13 - - 0.0 - - - - - - -
11/04:00pm 22.6 S 9 13 - - 0.0 - - - - - - -
11/03:30pm 22.8 S 8 12 - - 0.0 - - - - - - -
11/03:00pm 22.7 S 8 12 - - 0.0 - - - - - - -
11/02:30pm 22.5 S 8 13 - - 0.0 - - - - - - -
11/02:00pm 22.4 SSE 7 11 - - 0.0 - - - - - - -
11/01:30pm 22.9 S 7 11 - - 0.0 - - - - - - -
11/01:00pm 22.0 S 7 9 - - 0.0 - - - - - - -
11/12:30pm 21.7 SSE 6 8 - - 0.0 - - - - - - -
11/12:00pm 21.8 S 7 10 - - 0.0 - - - - - - -
11/11:30am 21.8 S 7 9 - - 0.0 - - - - - - -
11/11:00am 21.2 S 7 11 - - 0.0 - - - - - - -
11/10:30am 21.0 S 6 9 - - 0.0 - - - - - - -
11/10:00am 20.5 S 6 9 - - 0.0 - - - - - - -
11/09:30am 19.8 SSE 6 10 - - 0.0 - - - - - - -
11/09:00am 19.4 SSE 6 10 - - 0.0 - - - - - - -
11/08:30am 19.0 SSE 6 9 - - 0.0 - - - - - - -
11/08:00am 18.2 SSE 5 8 - - 0.0 - - - - - - -
11/07:30am 17.4 SSE 5 8 - - 0.0 - - - - - - -
11/07:00am 16.5 S 3 5 - - 0.0 - - - - - - -
11/06:30am 16.1 SSW 3 4 - - 0.0 - - - - - - -
11/06:00am 15.7 WSW 2 3 - - 0.0 - - - - - - -
11/05:30am 15.7 WSW 2 3 - - 0.0 - - - - - - -
11/05:00am 15.3 SW 4 5 - - 0.0 - - - - - - -
11/04:30am 15.4 WSW 4 6 - - 0.0 - - - - - - -
11/04:00am 15.3 WSW 5 6 - - 0.0 - - - - - - -
11/03:30am 15.3 WSW 5 6 - - 0.0 - - - - - - -
11/03:00am 15.3 SW 5 6 - - 0.0 - - - - - - -
11/02:30am 15.6 SW 6 8 - - 0.0 - - - - - - -
11/02:00am 15.8 SW 7 10 - - 0.0 - - - - - - -
11/01:30am 15.7 WSW 7 8 - - 0.0 - - - - - - -
11/01:00am 15.8 WSW 6 7 - - 0.0 - - - - - - -
11/12:30am 16.0 WSW 6 8 - - 0.0 - - - - - - -
11/12:00am 16.1 SW 6 8 - - 0.0 - - - - - - -
 
Date/Time
EDT
Temp

°C
Wind Pressure Rain
since 9am
mm
Weather Cloud Vis
km
Sea
Height
m
Swell
Dir
 
Speed
knots
Gust
knots
hPa Trend Height
m
Period
s
Dir
10/11:30pm 16.3 SW 7 9 - - 0.0 - - - - - - -
10/11:00pm 16.5 WSW 8 10 - - 0.0 - - - - - - -
10/10:30pm 17.0 SW 7 10 - - 0.0 - - - - - - -
10/10:00pm 17.5 SSW 9 12 - - 0.0 - - - - - - -
10/09:30pm 17.6 SSW 9 14 - - 0.0 - - - - - - -
10/09:00pm 17.5 SSW 9 14 - - 0.0 - - - - - - -
10/08:30pm 17.8 SSW 10 17 - - 0.0 - - - - - - -
10/08:00pm 18.8 SSW 10 14 - - 0.0 - - - - - - -
10/07:30pm 19.6 SSW 10 15 - - 0.0 - - - - - - -
10/07:00pm 20.1 SSW 10 15 - - 0.0 - - - - - - -
10/06:30pm 20.6 S 9 14 - - 0.0 - - - - - - -
10/06:00pm 21.5 SSW 10 16 - - 0.0 - - - - - - -
10/05:30pm 21.7 SSW 8 14 - - 0.0 - - - - - - -
10/05:00pm 21.6 SSW 9 14 - - 0.0 - - - - - - -
10/04:30pm 22.6 SSW 8 12 - - 0.0 - - - - - - -
10/04:00pm 21.8 S 8 11 - - 0.0 - - - - - - -
10/03:30pm 22.2 S 8 12 - - 0.0 - - - - - - -
10/03:00pm 21.9 S 7 11 - - 0.0 - - - - - - -
10/02:30pm 22.6 S 6 12 - - 0.0 - - - - - - -
10/02:00pm 22.3 S 7 12 - - 0.0 - - - - - - -
10/01:30pm 22.2 S 8 11 - - 0.0 - - - - - - -
10/01:00pm 21.1 S 7 11 - - 0.0 - - - - - - -
10/12:30pm 21.3 SSW 7 12 - - 0.0 - - - - - - -
10/12:00pm 21.0 SSW 9 13 - - 0.0 - - - - - - -
10/11:30am 21.5 SSW 8 13 - - 0.0 - - - - - - -
10/11:00am 19.9 SSW 8 12 - - 0.0 - - - - - - -
10/10:30am 19.9 SSW 7 11 - - 0.0 - - - - - - -
10/10:00am 19.2 SSW 7 9 - - 0.0 - - - - - - -
10/09:30am 19.4 SSW 4 7 - - 0.0 - - - - - - -
10/09:00am 18.4 SW 5 8 - - 0.0 - - - - - - -
10/08:30am 17.0 W 3 5 - - 0.0 - - - - - - -
10/08:00am 16.7 W 4 7 - - 0.0 - - - - - - -
10/07:30am 16.1 W 5 6 - - 0.0 - - - - - - -
10/07:00am 16.1 WSW 5 6 - - 0.0 - - - - - - -
10/06:30am 16.1 WSW 6 8 - - 0.0 - - - - - - -
10/06:00am 16.1 WSW 6 8 - - 0.0 - - - - - - -
10/05:30am 15.9 WSW 5 7 - - 0.0 - - - - - - -

Other Formats:

Comma delimited format used in spreadsheet applications
http://www.bom.gov.au/fwo/IDV60701/IDV60701.94846.axf

JavaScript Object Notation format (JSON) in row-major order
http://www.bom.gov.au/fwo/IDV60701/IDV60701.94846.json